createdAt,value
2018-09-06T00:04:35.802Z,9.64
2018-09-06T00:10:30.793Z,9.83
2018-09-06T00:16:25.843Z,10.26
2018-09-06T00:22:20.794Z,10.13
2018-09-06T00:28:15.842Z,9.57
2018-09-06T00:34:10.814Z,9.45
2018-09-06T00:40:05.817Z,9.7
2018-09-06T00:46:00.809Z,10.18
2018-09-06T00:51:55.814Z,10.65
2018-09-06T00:57:50.843Z,10.47
2018-09-06T01:03:45.830Z,9.5
2018-09-06T01:09:40.823Z,10.9
2018-09-06T01:15:35.835Z,10.19
2018-09-06T01:21:30.849Z,9.45
2018-09-06T01:27:25.868Z,9.39
2018-09-06T01:33:20.842Z,10.42
2018-09-06T01:39:15.882Z,10.05
2018-09-06T01:45:10.848Z,12.01
2018-09-06T01:51:05.870Z,12.26
2018-09-06T01:57:00.874Z,10.57
2018-09-06T02:02:55.861Z,11.89
2018-09-06T02:08:50.853Z,9.36
2018-09-06T02:14:45.888Z,10.12
2018-09-06T02:20:40.868Z,12.92
2018-09-06T02:26:35.872Z,11.15
2018-09-06T02:32:30.901Z,10.61
2018-09-06T02:38:25.962Z,9.92
2018-09-06T02:44:20.885Z,10.19
2018-09-06T02:50:15.879Z,13.37
2018-09-06T02:56:10.919Z,12.74
2018-09-06T03:02:05.900Z,11.73
2018-09-06T03:08:00.895Z,11.27
2018-09-06T03:13:55.957Z,13.15
2018-09-06T03:19:50.907Z,11.2
2018-09-06T03:25:45.966Z,11.04
2018-09-06T03:31:40.974Z,12.36
2018-09-06T03:37:35.982Z,10.74
2018-09-06T03:43:30.932Z,11.19
2018-09-06T03:49:26.101Z,10.38
2018-09-06T03:55:20.970Z,10.74
2018-09-06T04:01:15.974Z,11.94
2018-09-06T04:07:10.971Z,11.49
2018-09-06T04:13:05.951Z,12.52
2018-09-06T04:19:00.948Z,11.18
2018-09-06T04:24:55.985Z,11.23
2018-09-06T04:30:50.946Z,10.84
2018-09-06T04:36:45.960Z,12.23
2018-09-06T04:42:40.964Z,11.68
2018-09-06T04:48:35.957Z,10.94
2018-09-06T04:54:30.969Z,11.44
2018-09-06T05:00:25.963Z,10.84
2018-09-06T05:06:20.988Z,10.48
2018-09-06T05:12:15.969Z,11.04
2018-09-06T05:18:10.963Z,9.75
2018-09-06T05:24:05.996Z,10.31
2018-09-06T05:30:00.977Z,11.37
2018-09-06T05:35:56.030Z,11.2
2018-09-06T05:41:50.985Z,11.07
2018-09-06T05:47:46.047Z,11.47
2018-09-06T05:53:41.004Z,13.2
2018-09-06T05:59:36.061Z,12.17
2018-09-06T06:05:31.019Z,13.28
2018-09-06T06:11:25.997Z,14.66
2018-09-06T06:17:21.019Z,14.57
2018-09-06T06:23:16.013Z,14.9
2018-09-06T06:29:11.032Z,15.64
2018-09-06T06:35:06.017Z,14.65
2018-09-06T06:41:01.052Z,14.91
2018-09-06T06:46:56.023Z,14.05
2018-09-06T06:52:51.073Z,14.88
2018-09-06T06:58:46.034Z,15.52
2018-09-06T07:04:41.179Z,12.68
2018-09-06T07:10:36.034Z,14.35
2018-09-06T07:16:31.051Z,15.63
2018-09-06T07:22:26.093Z,15.17
2018-09-06T07:28:21.050Z,14.58
2018-09-06T07:34:16.061Z,13.78
2018-09-06T07:40:11.079Z,13.75
2018-09-06T07:46:06.049Z,13.93
2018-09-06T07:52:01.075Z,13.11
2018-09-06T07:57:56.085Z,12.95
2018-09-06T08:03:51.120Z,12.27
2018-09-06T08:09:46.087Z,11.24
2018-09-06T08:15:41.063Z,10.27
2018-09-06T08:21:36.086Z,9
2018-09-06T08:27:31.080Z,8.03
2018-09-06T08:33:26.074Z,7.51
2018-09-06T08:39:21.106Z,6.84
2018-09-06T08:45:16.121Z,7.29
2018-09-06T08:51:11.118Z,6.64
2018-09-06T08:57:06.123Z,6.15
2018-09-06T09:03:01.102Z,6.2
2018-09-06T09:08:56.126Z,6.3
2018-09-06T09:14:51.159Z,6.12
2018-09-06T09:20:46.112Z,6.07
2018-09-06T09:26:41.118Z,5.64
2018-09-06T09:32:36.148Z,5.09
2018-09-06T09:38:31.136Z,5.07
2018-09-06T09:44:26.120Z,6.06
2018-09-06T09:56:16.149Z,5.68
2018-09-06T10:02:11.242Z,5.37
2018-09-06T10:08:06.161Z,5.99
2018-09-06T10:14:01.171Z,4.73
2018-09-06T10:19:56.149Z,5.11
2018-09-06T10:25:51.162Z,4.96
2018-09-06T10:31:46.195Z,5.33
2018-09-06T10:37:41.154Z,5.56
2018-09-06T10:43:36.176Z,5.65
2018-09-06T10:49:31.186Z,5.15
2018-09-06T10:55:26.184Z,5.3
2018-09-06T11:01:21.175Z,5.51
2018-09-06T11:07:16.169Z,4.78
2018-09-06T11:13:11.191Z,4.77
2018-09-06T11:19:06.234Z,4.3
2018-09-06T11:25:01.203Z,4.4
2018-09-06T11:30:56.218Z,4.21
2018-09-06T11:36:51.188Z,4.43
2018-09-06T11:42:46.206Z,3.49
2018-09-06T11:48:41.198Z,3.23
2018-09-06T11:54:36.240Z,3.57
2018-09-06T12:00:31.246Z,3.75
2018-09-06T12:06:26.221Z,4.03
2018-09-06T12:12:21.221Z,3.75
2018-09-06T12:18:16.238Z,3.47
2018-09-06T12:24:11.279Z,3.31
2018-09-06T12:30:06.259Z,3.61
2018-09-06T12:36:01.267Z,3.51
2018-09-06T12:41:56.343Z,3.92
2018-09-06T12:47:51.266Z,3.98
2018-09-06T12:53:46.252Z,3.3
2018-09-06T12:59:41.263Z,4.55
2018-09-06T13:05:36.252Z,4.1
2018-09-06T13:11:31.328Z,3.62
2018-09-06T13:17:26.273Z,3.84
2018-09-06T13:23:21.281Z,3.81
2018-09-06T13:29:16.345Z,3.65
2018-09-06T13:35:11.334Z,3.15
2018-09-06T13:41:06.340Z,3.44
2018-09-06T13:47:01.292Z,3.56
2018-09-06T13:52:56.290Z,5.13
2018-09-06T13:58:51.312Z,3.46
2018-09-06T14:04:46.323Z,4.29
2018-09-06T14:10:41.314Z,3.62
2018-09-06T14:16:36.322Z,3.97
2018-09-06T14:22:31.367Z,4.43
2018-09-06T14:28:26.304Z,4.55
2018-09-06T14:34:21.358Z,4.07
2018-09-06T14:40:16.316Z,3.46
2018-09-06T14:46:11.348Z,3.7
2018-09-06T14:52:06.356Z,3.76
2018-09-06T14:58:01.353Z,4
2018-09-06T15:03:56.369Z,4.1
2018-09-06T15:09:51.324Z,4.18
2018-09-06T15:15:46.351Z,4.42
2018-09-06T15:21:41.374Z,3.52
2018-09-06T15:27:36.347Z,3.17
2018-09-06T15:33:31.358Z,3.36
2018-09-06T15:39:26.414Z,3.86
2018-09-06T15:45:21.368Z,3.37
2018-09-06T15:51:16.369Z,3.69
2018-09-06T15:57:11.379Z,3.13
2018-09-06T16:03:06.367Z,2.96
2018-09-06T16:09:01.393Z,3.01
2018-09-06T16:14:56.402Z,2.93
2018-09-06T16:20:51.426Z,2.84
2018-09-06T16:26:46.435Z,2.55
2018-09-06T16:32:41.401Z,3.03
2018-09-06T16:38:36.400Z,2.82
2018-09-06T16:44:31.454Z,3.01
2018-09-06T16:50:26.472Z,2.6
2018-09-06T16:56:21.514Z,3.25
2018-09-06T17:02:16.475Z,3.04
2018-09-06T17:08:11.482Z,3.51
2018-09-06T17:14:06.435Z,3.65
2018-09-06T17:20:01.419Z,3.35
2018-09-06T17:25:56.465Z,3.69
2018-09-06T17:31:51.439Z,3.59
2018-09-06T17:37:46.491Z,3.7
2018-09-06T17:43:41.510Z,3.53
2018-09-06T17:49:36.456Z,3.88
2018-09-06T17:55:31.455Z,3.94
2018-09-06T18:01:26.493Z,9.97
2018-09-06T18:07:21.487Z,4.82
2018-09-06T18:13:16.455Z,8.08
2018-09-06T18:19:11.476Z,4.34
2018-09-06T18:25:06.466Z,4.67
2018-09-06T18:31:01.469Z,8.77
2018-09-06T18:36:56.470Z,6.72
2018-09-06T18:42:51.520Z,5.98
2018-09-06T18:48:46.488Z,6.1
2018-09-06T18:54:41.481Z,5.43
2018-09-06T19:00:36.487Z,5.63
2018-09-06T19:06:31.488Z,6.38
2018-09-06T19:12:26.500Z,6.06
2018-09-06T19:18:21.530Z,7.59
2018-09-06T19:24:16.502Z,7.98
2018-09-06T19:30:11.508Z,7.18
2018-09-06T19:36:06.529Z,7.08
2018-09-06T19:42:01.507Z,6.72
2018-09-06T19:47:56.616Z,6.75
2018-09-06T19:53:51.566Z,7.08
2018-09-06T19:59:46.616Z,7.26
2018-09-06T20:05:41.521Z,6.44
2018-09-06T20:11:36.548Z,6.82
2018-09-06T20:17:31.550Z,6.69
2018-09-06T20:23:26.558Z,6.7
2018-09-06T20:29:21.599Z,7.21
2018-09-06T20:35:16.551Z,6.26
2018-09-06T20:41:11.555Z,5.78
2018-09-06T20:47:06.595Z,6.27
2018-09-06T20:53:01.604Z,7.05
2018-09-06T20:58:56.594Z,6.88
2018-09-06T21:04:51.587Z,7.38
2018-09-06T21:10:46.606Z,6.75
2018-09-06T21:16:41.565Z,6.61
2018-09-06T21:22:36.578Z,5.75
2018-09-06T21:28:31.593Z,6.45
2018-09-06T21:34:26.617Z,6.11
2018-09-06T21:40:21.585Z,6.65
2018-09-06T21:46:16.674Z,6.3
2018-09-06T21:52:11.591Z,6.45
2018-09-06T21:58:06.586Z,6.37
2018-09-06T22:04:01.639Z,5.92
2018-09-06T22:09:56.605Z,5.94
2018-09-06T22:15:51.598Z,5.63
2018-09-06T22:21:46.643Z,6.28
2018-09-06T22:27:41.624Z,6.41
2018-09-06T22:33:36.649Z,6.34
2018-09-06T22:39:31.606Z,5.73
2018-09-06T22:45:26.680Z,5.66
2018-09-06T22:51:21.628Z,5.78
2018-09-06T22:57:16.658Z,5.95
2018-09-06T23:03:11.674Z,5.76
2018-09-06T23:09:06.648Z,6.25
2018-09-06T23:15:01.679Z,6.47
2018-09-06T23:20:56.669Z,6.15
2018-09-06T23:26:51.667Z,6.14
2018-09-06T23:32:46.647Z,5.82
2018-09-06T23:38:41.685Z,5.91
2018-09-06T23:44:36.696Z,6.48
2018-09-06T23:50:31.665Z,6.17
2018-09-06T23:56:26.680Z,6.63
